Time;durP1;ratioP1;P1;durP2;ratioP2;P2;SDS_P1;SDS_P2;PMS_P1;PMS_P2;Temp;Humidity;BMP_temperature;BMP_pressure;BME280_temperature;BME280_humidity;BME280_pressure;Samples;Min_cycle;Max_cycle;Signal;HPM_P1;HPM_P2
2022/02/09 00:10:17;;;;;;;32.38;17.08;;;;;;;;;;5022249;28;20080;-50
2022/02/09 00:29:01;;;;;;;28.17;14.88;;;;;;;;;;5031258;28;20138;-50
2022/02/09 00:42:27;;;;;;;25.20;11.23;;;;;;;;;;5031354;28;20104;-50
2022/02/09 01:40:08;;;;;;;20.95;11.95;;;;;;;;;;4971973;28;20087;-49
2022/02/09 01:56:23;;;;;;;58.95;29.75;;;;;;;;;;5015281;28;20068;-55
2022/02/09 01:58:50;;;;;;;25.90;14.85;;;;;;;;;;5054464;28;20045;-55
2022/02/09 02:01:19;;;;;;;19.63;11.52;;;;;;;;;;5056352;28;20032;-54
2022/02/09 02:03:45;;;;;;;14.75;7.78;;;;;;;;;;5056278;28;20146;-48
2022/02/09 02:06:14;;;;;;;11.40;6.72;;;;;;;;;;5056321;28;20029;-48
2022/02/09 02:08:40;;;;;;;14.45;7.72;;;;;;;;;;5056083;28;20112;-50
2022/02/09 02:16:17;;;;;;;15.63;8.07;;;;;;;;;;5055746;28;20017;-55
2022/02/09 02:18:47;;;;;;;14.50;8.43;;;;;;;;;;5056289;28;20033;-51
2022/02/09 02:59:36;;;;;;;12.65;5.65;;;;;;;;;;4974664;28;20038;-50
2022/02/09 03:13:02;;;;;;;10.20;5.38;;;;;;;;;;4974490;28;20503;-50
2022/02/09 03:58:07;;;;;;;13.50;6.20;;;;;;;;;;4978418;28;20042;-51
2022/02/09 04:00:39;;;;;;;9.18;4.82;;;;;;;;;;5049087;28;20040;-53
2022/02/09 04:03:09;;;;;;;;;;;;;;;;;;5054793;28;20025;-50
2022/02/09 04:05:35;;;;;;;10.20;5.73;;;;;;;;;;5054119;28;19912;-49
2022/02/09 04:08:02;;;;;;;10.52;5.90;;;;;;;;;;5053972;28;20282;-51
2022/02/09 04:13:34;;;;;;;11.50;5.95;;;;;;;;;;5051876;28;20032;-50
2022/02/09 04:16:12;;;;;;;11.63;5.93;;;;;;;;;;5051266;28;20579;-51
2022/02/09 04:40:12;;;;;;;12.90;5.78;;;;;;;;;;5051446;28;20119;-53
2022/02/09 04:45:36;;;;;;;10.05;5.47;;;;;;;;;;5051333;28;20032;-50
2022/02/09 04:48:27;;;;;;;9.05;4.38;;;;;;;;;;5051058;28;20029;-49
2022/02/09 04:51:00;;;;;;;10.25;5.22;;;;;;;;;;5052911;28;20473;-53
2022/02/09 04:54:23;;;;;;;16.10;6.10;;;;;;;;;;5053134;28;20017;-51
2022/02/09 04:56:29;;;;;;;16.13;5.65;;;;;;;;;;5052955;28;20033;-49
2022/02/09 05:25:41;;;;;;;16.90;7.32;;;;;;;;;;5052758;28;20033;-51
2022/02/09 05:28:19;;;;;;;19.02;7.20;;;;;;;;;;5055940;28;20092;-51
2022/02/09 05:30:51;;;;;;;22.60;9.65;;;;;;;;;;5057157;28;20025;-54
2022/02/09 05:33:17;;;;;;;22.08;9.65;;;;;;;;;;5057255;28;20461;-54
2022/02/09 05:35:43;;;;;;;24.10;13.07;;;;;;;;;;5056917;28;20020;-50
2022/02/09 05:38:14;;;;;;;35.95;19.08;;;;;;;;;;5056843;28;20017;-51
2022/02/09 05:40:41;;;;;;;20.30;11.05;;;;;;;;;;5057063;28;20033;-51
2022/02/09 05:43:10;;;;;;;22.42;10.38;;;;;;;;;;5057243;28;20100;-52
2022/02/09 05:46:06;;;;;;;18.98;8.57;;;;;;;;;;5056978;28;20107;-50
2022/02/09 05:51:32;;;;;;;16.13;7.60;;;;;;;;;;5056944;28;20496;-46
2022/02/09 05:56:46;;;;;;;13.13;7.22;;;;;;;;;;5054412;28;20040;-46
2022/02/09 06:01:47;;;;;;;13.95;6.93;;;;;;;;;;5054395;28;20483;-48
2022/02/09 06:04:13;;;;;;;16.52;8.15;;;;;;;;;;5054583;28;20056;-47
2022/02/09 06:06:39;;;;;;;18.60;6.68;;;;;;;;;;5054060;28;20020;-47
2022/02/09 06:09:08;;;;;;;14.45;7.50;;;;;;;;;;5054054;28;20097;-47
2022/02/09 06:22:04;;;;;;;29.83;14.13;;;;;;;;;;5054252;28;20157;-51
2022/02/09 06:24:33;;;;;;;29.05;13.13;;;;;;;;;;5054097;28;20096;-52
2022/02/09 06:26:59;;;;;;;28.60;11.85;;;;;;;;;;5054009;28;20048;-50
2022/02/09 06:29:25;;;;;;;26.23;10.93;;;;;;;;;;5053589;28;20499;-53
2022/02/09 06:31:51;;;;;;;18.90;10.45;;;;;;;;;;5053779;28;20128;-49
2022/02/09 06:34:20;;;;;;;21.65;9.77;;;;;;;;;;5055452;28;20105;-50
2022/02/09 06:36:59;;;;;;;20.25;8.02;;;;;;;;;;5055765;28;20155;-52
2022/02/09 06:39:26;;;;;;;12.80;7.63;;;;;;;;;;5055604;28;20104;-53
2022/02/09 06:41:55;;;;;;;15.52;6.75;;;;;;;;;;5055912;28;20025;-49
2022/02/09 06:44:21;;;;;;;13.88;8.25;;;;;;;;;;5055595;28;20026;-49
2022/02/09 06:46:47;;;;;;;12.02;6.93;;;;;;;;;;5055734;28;20040;-49
2022/02/09 06:49:16;;;;;;;13.02;6.97;;;;;;;;;;5055814;28;20029;-49
2022/02/09 06:51:45;;;;;;;19.25;6.85;;;;;;;;;;5055556;28;20047;-49
2022/02/09 06:54:27;;;;;;;14.43;8.82;;;;;;;;;;5055763;28;20071;-50
2022/02/09 06:59:28;;;;;;;29.10;15.10;;;;;;;;;;5055264;28;20037;-49
2022/02/09 07:01:55;;;;;;;31.88;20.52;;;;;;;;;;5055182;28;20025;-53
2022/02/09 07:04:21;;;;;;;24.60;13.48;;;;;;;;;;5055523;28;20033;-53
2022/02/09 07:06:47;;;;;;;28.42;12.68;;;;;;;;;;5053925;28;20033;-51
2022/02/09 07:09:14;;;;;;;16.67;10.23;;;;;;;;;;5055293;28;20060;-52
2022/02/09 07:11:40;;;;;;;15.52;9.10;;;;;;;;;;5055260;28;20013;-50
2022/02/09 07:14:09;;;;;;;15.70;7.13;;;;;;;;;;5055258;28;20079;-49
2022/02/09 07:16:35;;;;;;;13.07;7.53;;;;;;;;;;5055088;28;20029;-49
2022/02/09 07:19:06;;;;;;;14.95;7.82;;;;;;;;;;5055146;28;20025;-49
2022/02/09 07:21:37;;;;;;;10.57;6.18;;;;;;;;;;5054959;28;20025;-50
2022/02/09 07:24:04;;;;;;;10.50;7.70;;;;;;;;;;5053135;28;20087;-50
2022/02/09 07:26:47;;;;;;;12.52;8.18;;;;;;;;;;5055033;28;20021;-50
2022/02/09 07:29:14;;;;;;;11.82;6.50;;;;;;;;;;5054617;28;20524;-52
2022/02/09 07:31:40;;;;;;;11.45;7.82;;;;;;;;;;5054999;28;20039;-49
2022/02/09 07:34:06;;;;;;;11.18;7.97;;;;;;;;;;5054781;28;20033;-49
2022/02/09 07:36:38;;;;;;;15.38;8.85;;;;;;;;;;5054918;28;20017;-53
2022/02/09 07:39:05;;;;;;;13.23;8.80;;;;;;;;;;5054686;28;20389;-49
2022/02/09 07:41:31;;;;;;;14.95;8.40;;;;;;;;;;5055050;28;20033;-49
2022/02/09 07:49:38;;;;;;;13.70;9.93;;;;;;;;;;5051605;28;20086;-51
2022/02/09 07:52:08;;;;;;;19.08;9.18;;;;;;;;;;5052707;28;20064;-52
2022/02/09 07:54:34;;;;;;;17.00;10.57;;;;;;;;;;5052245;28;20072;-50
2022/02/09 07:57:00;;;;;;;16.48;9.98;;;;;;;;;;5052758;28;20441;-54
2022/02/09 07:59:27;;;;;;;22.58;13.00;;;;;;;;;;5052246;28;20037;-53
2022/02/09 08:01:53;;;;;;;17.30;12.25;;;;;;;;;;5052127;28;20429;-50
2022/02/09 08:04:19;;;;;;;19.17;11.68;;;;;;;;;;5052334;28;20029;-51
2022/02/09 08:06:47;;;;;;;20.38;9.60;;;;;;;;;;5052153;28;20035;-53
2022/02/09 08:09:23;;;;;;;14.18;10.15;;;;;;;;;;5051839;28;20565;-52
2022/02/09 08:11:59;;;;;;;15.35;10.18;;;;;;;;;;5052398;28;20450;-53
2022/02/09 08:27:57;;;;;;;21.50;11.73;;;;;;;;;;5054074;28;20083;-50
2022/02/09 08:30:47;;;;;;;15.40;8.10;;;;;;;;;;5053718;28;20134;-53
2022/02/09 08:33:17;;;;;;;19.83;8.93;;;;;;;;;;5053747;28;20025;-54
2022/02/09 08:35:44;;;;;;;14.77;7.72;;;;;;;;;;5053825;28;20033;-54
2022/02/09 08:38:11;;;;;;;17.73;9.30;;;;;;;;;;5053973;28;20013;-49
2022/02/09 08:40:37;;;;;;;19.10;11.35;;;;;;;;;;5053804;28;20025;-51
2022/02/09 08:43:04;;;;;;;13.68;7.60;;;;;;;;;;5053623;28;20074;-49
2022/02/09 08:45:31;;;;;;;12.27;7.10;;;;;;;;;;5053593;28;20091;-49
2022/02/09 08:47:57;;;;;;;8.80;5.70;;;;;;;;;;5053584;28;20028;-50
2022/02/09 08:50:24;;;;;;;12.05;6.32;;;;;;;;;;5053316;28;20037;-49
2022/02/09 08:52:50;;;;;;;12.75;6.80;;;;;;;;;;5053505;28;20044;-48
2022/02/09 08:55:17;;;;;;;14.98;7.00;;;;;;;;;;5053467;28;20051;-49
2022/02/09 08:57:43;;;;;;;14.60;8.00;;;;;;;;;;5053175;28;20090;-49
2022/02/09 09:00:22;;;;;;;16.27;12.30;;;;;;;;;;5053113;28;20037;-49
2022/02/09 09:02:58;;;;;;;15.48;10.23;;;;;;;;;;5053522;28;20086;-49
2022/02/09 09:05:29;;;;;;;14.73;8.75;;;;;;;;;;5053207;28;20062;-54
2022/02/09 09:08:11;;;;;;;13.82;8.65;;;;;;;;;;5053056;28;20397;-54
2022/02/09 09:10:47;;;;;;;21.67;13.38;;;;;;;;;;5052995;28;20101;-54
2022/02/09 10:00:41;;;;;;;5.68;3.10;;;;;;;;;;5053021;28;20086;-54
2022/02/09 10:02:59;;;;;;;10.57;3.80;;;;;;;;;;5052450;28;20032;-52
2022/02/09 10:33:17;;;;;;;4.15;2.63;;;;;;;;;;5056600;28;20517;-54
2022/02/09 10:36:01;;;;;;;6.13;3.08;;;;;;;;;;5055940;28;20102;-53
2022/02/09 10:38:32;;;;;;;4.35;2.78;;;;;;;;;;5055988;28;20036;-55
2022/02/09 10:41:10;;;;;;;5.28;2.75;;;;;;;;;;5055856;28;20483;-53
2022/02/09 10:43:37;;;;;;;8.77;2.90;;;;;;;;;;5055851;28;20481;-55
2022/02/09 10:46:23;;;;;;;3.47;2.53;;;;;;;;;;5055693;28;20036;-47
2022/02/09 10:48:57;;;;;;;4.43;2.75;;;;;;;;;;5056016;28;20032;-48
2022/02/09 10:51:51;;;;;;;4.88;2.30;;;;;;;;;;5055522;28;20036;-51
2022/02/09 10:54:19;;;;;;;6.93;2.92;;;;;;;;;;5055626;28;20098;-52
2022/02/09 10:56:46;;;;;;;3.78;2.45;;;;;;;;;;5055380;28;20025;-55
2022/02/09 10:59:13;;;;;;;3.28;2.20;;;;;;;;;;5055873;28;20104;-55
2022/02/09 11:01:40;;;;;;;4.25;2.30;;;;;;;;;;5055317;28;20441;-55
2022/02/09 11:04:09;;;;;;;5.20;3.20;;;;;;;;;;5055631;28;20025;-47
2022/02/09 11:06:39;;;;;;;4.00;2.40;;;;;;;;;;5055489;28;20028;-56
2022/02/09 11:09:08;;;;;;;4.63;2.42;;;;;;;;;;5055340;28;20469;-53
2022/02/09 11:11:39;;;;;;;3.20;2.30;;;;;;;;;;5055287;28;20446;-55
2022/02/09 11:14:05;;;;;;;9.50;2.57;;;;;;;;;;5055280;28;20028;-48
2022/02/09 11:16:34;;;;;;;7.38;2.67;;;;;;;;;;5055552;28;20055;-55
2022/02/09 11:19:00;;;;;;;7.45;2.90;;;;;;;;;;5055297;28;20032;-47
2022/02/09 11:21:36;;;;;;;5.80;2.90;;;;;;;;;;5055309;28;20020;-48
2022/02/09 11:24:15;;;;;;;5.65;2.25;;;;;;;;;;5055049;28;20392;-55
2022/02/09 11:32:04;;;;;;;21.67;3.50;;;;;;;;;;5054974;28;20048;-53
2022/02/09 11:34:51;;;;;;;12.88;3.88;;;;;;;;;;5053605;28;20029;-50
2022/02/09 11:39:53;;;;;;;4.90;2.95;;;;;;;;;;5054831;28;20029;-49
2022/02/09 11:45:24;;;;;;;7.55;3.65;;;;;;;;;;5054850;28;20036;-54
2022/02/09 11:56:44;;;;;;;4.38;2.80;;;;;;;;;;5054723;28;20036;-51
2022/02/09 11:58:53;;;;;;;4.25;3.55;;;;;;;;;;5054621;28;20033;-53
2022/02/09 12:01:49;;;;;;;9.20;3.58;;;;;;;;;;5054357;28;20041;-49
2022/02/09 12:10:10;;;;;;;11.27;3.58;;;;;;;;;;5052079;28;20182;-48
2022/02/09 12:12:44;;;;;;;11.00;2.95;;;;;;;;;;5051965;28;20033;-53
2022/02/09 12:15:29;;;;;;;3.88;2.50;;;;;;;;;;5052165;28;20542;-53
2022/02/09 12:18:15;;;;;;;7.82;2.90;;;;;;;;;;5052168;28;20040;-54
2022/02/09 12:20:47;;;;;;;12.30;4.93;;;;;;;;;;5052348;28;20063;-55
2022/02/09 12:25:50;;;;;;;16.90;7.68;;;;;;;;;;5051741;28;20099;-48
2022/02/09 12:28:17;;;;;;;15.25;10.65;;;;;;;;;;5051789;28;20068;-54
2022/02/09 12:30:43;;;;;;;19.48;10.65;;;;;;;;;;5051707;28;20049;-50
2022/02/09 12:33:25;;;;;;;17.13;10.18;;;;;;;;;;5051457;28;20044;-50
2022/02/09 12:35:51;;;;;;;24.08;8.27;;;;;;;;;;5047455;28;20057;-48
2022/02/09 12:38:31;;;;;;;33.53;12.48;;;;;;;;;;5041670;28;20469;-51
2022/02/09 12:41:11;;;;;;;18.42;8.10;;;;;;;;;;5040113;28;20429;-50
2022/02/09 12:43:49;;;;;;;14.45;8.05;;;;;;;;;;5039923;28;20033;-52
2022/02/09 12:46:15;;;;;;;12.70;5.15;;;;;;;;;;5040101;28;20017;-49
2022/02/09 12:48:43;;;;;;;29.40;7.50;;;;;;;;;;5052088;28;20029;-51
2022/02/09 12:51:10;;;;;;;21.90;7.43;;;;;;;;;;5052509;28;20032;-50
2022/02/09 12:53:40;;;;;;;23.63;11.60;;;;;;;;;;5053012;28;20480;-49
2022/02/09 12:56:17;;;;;;;15.38;7.22;;;;;;;;;;5052736;28;20507;-50
2022/02/09 12:58:43;;;;;;;13.18;4.60;;;;;;;;;;5052912;28;20044;-50
2022/02/09 13:01:09;;;;;;;30.88;16.48;;;;;;;;;;5052723;28;20025;-50
2022/02/09 13:03:36;;;;;;;35.28;13.90;;;;;;;;;;5052753;28;20025;-50
2022/02/09 13:06:03;;;;;;;18.15;6.00;;;;;;;;;;5052616;28;20048;-49
2022/02/09 13:08:32;;;;;;;14.25;6.50;;;;;;;;;;5052829;28;20021;-50
2022/02/09 13:11:15;;;;;;;14.30;6.18;;;;;;;;;;5052584;28;20448;-50
2022/02/09 13:13:44;;;;;;;21.73;7.95;;;;;;;;;;5051746;28;20546;-50
2022/02/09 13:16:17;;;;;;;38.65;17.55;;;;;;;;;;5050262;28;20052;-50
2022/02/09 14:13:26;;;;;;;18.95;7.60;;;;;;;;;;5054301;28;20024;-49
2022/02/09 14:33:16;;;;;;;20.30;10.75;;;;;;;;;;5055753;28;20040;-47
2022/02/09 14:47:23;;;;;;;16.13;7.90;;;;;;;;;;5053413;28;20044;-50
2022/02/09 14:55:45;;;;;;;10.52;6.22;;;;;;;;;;4984983;28;20117;-51
2022/02/09 14:57:44;;;;;;;29.25;6.95;;;;;;;;;;4976912;28;20026;-50
2022/02/09 15:00:19;;;;;;;16.58;6.30;;;;;;;;;;4981535;28;20393;-52
2022/02/09 15:05:52;;;;;;;6.43;4.40;;;;;;;;;;4983428;28;20018;-51
2022/02/09 15:08:22;;;;;;;9.40;5.07;;;;;;;;;;4983728;28;20062;-48
2022/02/09 15:14:04;;;;;;;6.32;3.30;;;;;;;;;;5002113;28;20034;-48
2022/02/09 15:16:29;;;;;;;6.50;3.72;;;;;;;;;;4998002;28;20036;-50
2022/02/09 15:24:14;;;;;;;13.32;6.45;;;;;;;;;;5032036;28;20146;-49
2022/02/09 15:26:43;;;;;;;15.27;8.68;;;;;;;;;;5032507;28;20440;-49
2022/02/09 15:29:12;;;;;;;19.67;10.20;;;;;;;;;;5048371;28;20049;-49
2022/02/09 15:32:03;;;;;;;27.70;14.88;;;;;;;;;;5051372;28;20059;-49
2022/02/09 15:34:32;;;;;;;26.67;15.70;;;;;;;;;;5049884;28;20033;-50
2022/02/09 15:39:42;;;;;;;27.95;13.00;;;;;;;;;;5049287;28;20466;-53
2022/02/09 15:42:28;;;;;;;22.55;11.93;;;;;;;;;;5051133;28;20059;-60
2022/02/09 16:09:23;;;;;;;89.32;44.20;;;;;;;;;;5054000;28;20052;-48
2022/02/09 16:46:24;;;;;;;33.58;16.75;;;;;;;;;;5053530;28;20029;-47
2022/02/09 16:51:20;;;;;;;42.15;23.40;;;;;;;;;;5053290;28;20033;-47
2022/02/09 16:53:55;;;;;;;50.28;27.70;;;;;;;;;;5053162;28;20025;-47
2022/02/09 17:15:33;;;;;;;52.38;25.23;;;;;;;;;;5052924;28;20102;-48
2022/02/09 17:20:46;;;;;;;84.22;41.20;;;;;;;;;;5053434;28;20040;-47
2022/02/09 17:23:12;;;;;;;73.13;40.95;;;;;;;;;;5052876;28;20418;-47
2022/02/09 17:25:38;;;;;;;81.65;43.58;;;;;;;;;;5052767;28;20104;-48
2022/02/09 17:28:08;;;;;;;84.68;48.05;;;;;;;;;;5052561;28;20032;-47
2022/02/09 17:35:36;;;;;;;72.35;38.15;;;;;;;;;;5052247;28;20086;-47
2022/02/09 17:38:29;;;;;;;66.55;35.30;;;;;;;;;;5052061;28;20473;-47
2022/02/09 17:57:44;;;;;;;313.48;169.38;;;;;;;;;;5050536;28;20035;-48
2022/02/09 18:00:16;;;;;;;224.80;118.97;;;;;;;;;;5051114;28;20025;-47
2022/02/09 18:02:43;;;;;;;187.30;100.40;;;;;;;;;;5049970;28;20482;-48
2022/02/09 18:05:17;;;;;;;216.70;109.03;;;;;;;;;;5052007;28;20017;-51
2022/02/09 18:07:46;;;;;;;201.40;105.45;;;;;;;;;;5050289;28;20025;-48
2022/02/09 18:44:36;;;;;;;42.22;27.02;;;;;;;;;;4993689;28;20508;-47
2022/02/09 19:03:35;;;;;;;32.15;18.90;;;;;;;;;;5052270;28;20036;-52
2022/02/09 19:06:11;;;;;;;36.65;20.45;;;;;;;;;;5055136;28;20377;-55
2022/02/09 19:14:25;;;;;;;86.63;45.97;;;;;;;;;;5055418;28;20032;-46
2022/02/09 19:16:57;;;;;;;57.00;32.45;;;;;;;;;;5055099;28;20048;-46
2022/02/09 19:40:44;;;;;;;86.50;41.47;;;;;;;;;;5022859;28;20745;-55
2022/02/09 19:46:17;;;;;;;50.22;28.45;;;;;;;;;;5021755;28;20040;-48
2022/02/09 19:48:57;;;;;;;53.75;28.38;;;;;;;;;;5022309;28;20079;-53
2022/02/09 19:51:44;;;;;;;72.68;38.63;;;;;;;;;;5022645;28;20052;-57
2022/02/09 19:56:40;;;;;;;79.55;38.55;;;;;;;;;;5022634;28;20037;-52
2022/02/09 19:59:18;;;;;;;57.63;29.38;;;;;;;;;;5022223;28;20049;-48
2022/02/09 20:01:45;;;;;;;44.72;25.88;;;;;;;;;;5022405;28;20035;-50
2022/02/09 20:04:11;;;;;;;43.97;23.83;;;;;;;;;;5022273;28;20094;-51
2022/02/09 20:06:37;;;;;;;42.35;24.83;;;;;;;;;;5022400;28;20884;-50
2022/02/09 20:09:04;;;;;;;87.00;43.83;;;;;;;;;;5022168;28;20036;-51
2022/02/09 20:11:30;;;;;;;106.55;60.63;;;;;;;;;;5022315;28;20033;-49
2022/02/09 20:13:56;;;;;;;79.70;45.63;;;;;;;;;;5021946;28;20041;-50
2022/02/09 20:16:24;;;;;;;68.65;38.47;;;;;;;;;;5023304;28;20040;-50
2022/02/09 20:18:51;;;;;;;67.68;37.75;;;;;;;;;;5022287;28;20083;-52
2022/02/09 20:21:19;;;;;;;48.70;30.85;;;;;;;;;;5022435;28;20025;-50
2022/02/09 20:23:45;;;;;;;65.72;40.63;;;;;;;;;;5022202;28;20037;-45
2022/02/09 20:26:13;;;;;;;63.47;36.47;;;;;;;;;;5022017;28;20025;-65
2022/02/09 20:28:44;;;;;;;65.72;38.38;;;;;;;;;;5021516;28;20056;-61
2022/02/09 20:31:18;;;;;;;53.40;31.70;;;;;;;;;;5022728;28;20106;-64
2022/02/09 20:33:53;;;;;;;48.97;30.13;;;;;;;;;;5023198;28;20043;-53
2022/02/09 20:36:19;;;;;;;65.50;36.90;;;;;;;;;;5022772;28;20052;-66
2022/02/09 20:38:51;;;;;;;43.53;27.25;;;;;;;;;;5022834;28;20028;-57
2022/02/09 20:41:19;;;;;;;48.10;28.42;;;;;;;;;;5024190;28;20485;-51
2022/02/09 20:44:19;;;;;;;48.03;29.98;;;;;;;;;;5021486;28;20095;-68
2022/02/09 20:46:33;;;;;;;44.17;27.05;;;;;;;;;;5022402;28;20086;-50
2022/02/09 20:49:08;;;;;;;38.53;21.52;;;;;;;;;;5020711;28;20103;-62
2022/02/09 20:51:34;;;;;;;45.70;27.40;;;;;;;;;;5021282;28;20040;-65
2022/02/09 20:54:02;;;;;;;44.65;28.08;;;;;;;;;;5022048;28;21033;-61
2022/02/09 20:56:33;;;;;;;61.05;33.97;;;;;;;;;;5022087;28;20040;-52
2022/02/09 20:59:03;;;;;;;43.05;25.35;;;;;;;;;;5021980;28;20034;-47
2022/02/09 21:01:39;;;;;;;40.58;24.25;;;;;;;;;;5021399;28;20308;-51
2022/02/09 21:04:09;;;;;;;49.72;29.30;;;;;;;;;;5021307;28;20070;-52
2022/02/09 21:22:35;;;;;;;107.40;65.03;;;;;;;;;;5012334;28;20244;-58
2022/02/09 21:54:23;;;;;;;61.80;31.30;;;;;;;;;;4954210;28;20038;-60
2022/02/09 21:56:54;;;;;;;56.63;30.70;;;;;;;;;;4957530;28;20039;-52
2022/02/09 22:54:28;;;;;;;41.92;24.77;;;;;;;;;;4981233;28;20034;-56
2022/02/09 22:56:12;;;;;;;1370.32;753.15;;;;;;;;;;4981005;28;20085;-47
2022/02/09 22:58:38;;;;;;;56.97;36.25;;;;;;;;;;4980789;28;20034;-49
2022/02/09 23:16:43;;;;;;;63.83;36.03;;;;;;;;;;5005314;28;20033;-53
2022/02/09 23:25:16;;;;;;;91.82;49.35;;;;;;;;;;5001702;28;20061;-46
2022/02/09 23:58:17;;;;;;;53.70;31.50;;;;;;;;;;4962434;28;20108;-54
